createdAt,value
2023-02-24T00:00:06.563Z,958.10
2023-02-24T00:01:06.533Z,958.09
2023-02-24T00:02:06.641Z,958.09
2023-02-24T00:03:06.690Z,958.08
2023-02-24T00:04:06.503Z,958.07
2023-02-24T00:05:06.503Z,958.06
2023-02-24T00:06:06.496Z,958.06
2023-02-24T00:07:06.481Z,958.06
2023-02-24T00:08:06.474Z,958.05
2023-02-24T00:09:06.456Z,958.05
2023-02-24T00:10:06.465Z,958.05
2023-02-24T00:11:06.437Z,958.05
2023-02-24T00:12:06.459Z,958.05
2023-02-24T00:13:06.408Z,958.05
2023-02-24T00:14:06.413Z,958.04
2023-02-24T00:15:06.409Z,958.03
2023-02-24T00:16:06.424Z,958.03
2023-02-24T00:17:06.392Z,958.03
2023-02-24T00:18:06.380Z,958.02
2023-02-24T00:19:06.359Z,958.02
2023-02-24T00:20:06.344Z,958.01
2023-02-24T00:21:06.332Z,958.00
2023-02-24T00:22:06.340Z,957.99
2023-02-24T00:23:06.301Z,957.98
2023-02-24T00:24:06.305Z,957.97
2023-02-24T00:25:06.291Z,957.96
2023-02-24T00:26:06.283Z,957.95
2023-02-24T00:27:06.322Z,957.94
2023-02-24T00:28:06.268Z,957.93
2023-02-24T00:29:06.259Z,957.93
2023-02-24T00:30:06.260Z,957.93
2023-02-24T00:31:06.303Z,957.93
2023-02-24T00:32:06.558Z,957.93
2023-02-24T00:33:06.409Z,957.93
2023-02-24T00:34:06.218Z,957.92
2023-02-24T00:35:06.210Z,957.92
2023-02-24T00:36:06.209Z,957.92
2023-02-24T00:37:06.215Z,957.92
2023-02-24T00:38:06.175Z,957.90
2023-02-24T00:39:06.182Z,957.90
2023-02-24T00:40:06.171Z,957.89
2023-02-24T00:41:06.133Z,957.88
2023-02-24T00:42:06.172Z,957.87
2023-02-24T00:43:06.123Z,957.86
2023-02-24T00:44:06.187Z,957.85
2023-02-24T00:45:06.102Z,957.84
2023-02-24T00:46:06.141Z,957.84
2023-02-24T00:47:06.093Z,957.85
2023-02-24T00:48:06.100Z,957.85
2023-02-24T00:49:06.071Z,957.85
2023-02-24T00:50:06.061Z,957.83
2023-02-24T00:51:06.037Z,957.83
2023-02-24T00:52:06.044Z,957.82
2023-02-24T00:53:06.041Z,957.80
2023-02-24T00:54:06.005Z,957.79
2023-02-24T00:55:05.992Z,957.77
2023-02-24T00:56:05.993Z,957.77
2023-02-24T00:57:05.982Z,957.76
2023-02-24T00:58:05.980Z,957.75
2023-02-24T00:59:05.958Z,957.74
2023-02-24T01:00:05.945Z,957.74
2023-02-24T01:01:05.948Z,957.73
2023-02-24T01:02:05.938Z,957.73
2023-02-24T01:03:05.935Z,957.72
2023-02-24T01:04:06.066Z,957.70
2023-02-24T01:05:05.911Z,957.69
2023-02-24T01:06:05.899Z,957.67
2023-02-24T01:07:05.893Z,957.66
2023-02-24T01:08:05.891Z,957.64
2023-02-24T01:09:05.848Z,957.64
2023-02-24T01:10:05.867Z,957.63
2023-02-24T01:11:05.854Z,957.62
2023-02-24T01:12:05.878Z,957.60
2023-02-24T01:13:05.830Z,957.60
2023-02-24T01:14:05.808Z,957.59
2023-02-24T01:15:05.819Z,957.58
2023-02-24T01:16:05.884Z,957.57
2023-02-24T01:17:05.776Z,957.56
2023-02-24T01:18:05.772Z,957.55
2023-02-24T01:19:05.757Z,957.54
2023-02-24T01:20:05.757Z,957.53
2023-02-24T01:21:05.723Z,957.52
2023-02-24T01:22:05.730Z,957.52
2023-02-24T01:23:05.725Z,957.51
2023-02-24T01:24:05.715Z,957.50
2023-02-24T01:25:05.685Z,957.50
2023-02-24T01:26:05.688Z,957.50
2023-02-24T01:27:05.699Z,957.49
2023-02-24T01:28:05.680Z,957.49
2023-02-24T01:29:05.660Z,957.49
2023-02-24T01:30:05.639Z,957.50
2023-02-24T01:31:05.741Z,957.49
2023-02-24T01:32:05.845Z,957.49
2023-02-24T01:33:05.829Z,957.48
2023-02-24T01:34:05.618Z,957.46
2023-02-24T01:35:05.595Z,957.45
2023-02-24T01:36:05.579Z,957.44
2023-02-24T01:37:05.590Z,957.44
2023-02-24T01:38:05.598Z,957.42
2023-02-24T01:39:05.565Z,957.42
2023-02-24T01:40:05.534Z,957.41
2023-02-24T01:41:05.524Z,957.41
2023-02-24T01:42:05.555Z,957.42
2023-02-24T01:43:05.505Z,957.43
2023-02-24T01:44:05.512Z,957.43
2023-02-24T01:45:05.490Z,957.44
2023-02-24T01:46:05.480Z,957.44
2023-02-24T01:47:05.500Z,957.44
2023-02-24T01:48:05.468Z,957.44
2023-02-24T01:49:05.454Z,957.44
2023-02-24T01:50:05.445Z,957.44
2023-02-24T01:51:05.455Z,957.43
2023-02-24T01:52:05.452Z,957.42
2023-02-24T01:53:05.404Z,957.41
2023-02-24T01:54:05.439Z,957.40
2023-02-24T01:55:05.391Z,957.38
2023-02-24T01:56:05.397Z,957.36
2023-02-24T01:57:05.403Z,957.35
2023-02-24T01:58:05.375Z,957.33
2023-02-24T01:59:05.351Z,957.31
2023-02-24T02:00:05.344Z,957.31
2023-02-24T02:01:05.349Z,957.29
2023-02-24T02:02:05.537Z,957.29
2023-02-24T02:03:05.300Z,957.30
2023-02-24T02:04:05.302Z,957.30
2023-02-24T02:05:05.297Z,957.31
2023-02-24T02:06:05.289Z,957.30
2023-02-24T02:07:05.297Z,957.30
2023-02-24T02:08:05.267Z,957.30
2023-02-24T02:09:05.244Z,957.31
2023-02-24T02:10:05.248Z,957.32
2023-02-24T02:11:05.235Z,957.32
2023-02-24T02:12:05.247Z,957.31
2023-02-24T02:13:05.218Z,957.30
2023-02-24T02:14:05.246Z,957.30
2023-02-24T02:15:05.188Z,957.30
2023-02-24T02:16:05.263Z,957.29
2023-02-24T02:17:05.181Z,957.30
2023-02-24T02:18:05.191Z,957.28
2023-02-24T02:19:05.158Z,957.28
2023-02-24T02:20:05.150Z,957.26
2023-02-24T02:21:05.143Z,957.25
2023-02-24T02:22:05.122Z,957.24
2023-02-24T02:23:05.114Z,957.22
2023-02-24T02:24:05.096Z,957.20
2023-02-24T02:25:05.070Z,957.18
2023-02-24T02:26:05.072Z,957.16
2023-02-24T02:27:05.065Z,957.14
2023-02-24T02:28:05.070Z,957.13
2023-02-24T02:29:05.036Z,957.10
2023-02-24T02:30:05.025Z,957.08
2023-02-24T02:31:05.205Z,957.06
2023-02-24T02:32:05.115Z,957.04
2023-02-24T02:33:04.998Z,957.03
2023-02-24T02:34:05.021Z,957.03
2023-02-24T02:35:04.990Z,957.02
2023-02-24T02:36:04.970Z,957.00
2023-02-24T02:37:04.970Z,956.98
2023-02-24T02:38:04.971Z,956.98
2023-02-24T02:39:04.934Z,956.98
2023-02-24T02:40:04.933Z,956.97
2023-02-24T02:41:04.919Z,956.94
2023-02-24T02:42:04.935Z,956.91
2023-02-24T02:43:04.895Z,956.90
2023-02-24T02:44:04.899Z,956.90
2023-02-24T02:45:04.880Z,956.89
2023-02-24T02:46:04.901Z,956.90
2023-02-24T02:47:04.892Z,956.90
2023-02-24T02:48:04.833Z,956.91
2023-02-24T02:49:04.833Z,956.92
2023-02-24T02:50:04.809Z,956.91
2023-02-24T02:51:04.807Z,956.90
2023-02-24T02:52:04.822Z,956.89
2023-02-24T02:53:04.799Z,956.88
2023-02-24T02:54:04.835Z,956.87
2023-02-24T02:55:04.819Z,956.87
2023-02-24T02:56:04.756Z,956.86
2023-02-24T02:57:04.800Z,956.84
2023-02-24T02:58:04.780Z,956.83
2023-02-24T02:59:04.758Z,956.81
2023-02-24T03:00:04.774Z,956.79
2023-02-24T03:01:04.812Z,956.77
2023-02-24T03:02:04.699Z,956.76
2023-02-24T03:03:04.674Z,956.76
2023-02-24T03:04:04.717Z,956.75
2023-02-24T03:05:04.709Z,956.73
2023-02-24T03:06:04.676Z,956.72
2023-02-24T03:07:04.658Z,956.70
2023-02-24T03:08:04.631Z,956.68
2023-02-24T03:09:04.631Z,956.67
2023-02-24T03:10:04.610Z,956.67
2023-02-24T03:11:04.614Z,956.66
2023-02-24T03:12:04.597Z,956.65
2023-02-24T03:13:04.570Z,956.65
2023-02-24T03:14:04.569Z,956.64
2023-02-24T03:15:04.575Z,956.63
2023-02-24T03:16:04.533Z,956.63
2023-02-24T03:17:04.553Z,956.63
2023-02-24T03:18:04.538Z,956.63
2023-02-24T03:19:04.524Z,956.64
2023-02-24T03:20:04.509Z,956.64
2023-02-24T03:21:04.487Z,956.65
2023-02-24T03:22:04.498Z,956.65
2023-02-24T03:23:04.472Z,956.65
2023-02-24T03:24:04.473Z,956.64
2023-02-24T03:25:04.450Z,956.64
2023-02-24T03:26:04.449Z,956.64
2023-02-24T03:27:04.432Z,956.64
2023-02-24T03:28:10.926Z,956.63
2023-02-24T03:29:04.417Z,956.62
2023-02-24T03:30:04.396Z,956.61
2023-02-24T03:31:04.408Z,956.60
2023-02-24T03:32:04.474Z,956.59
2023-02-24T03:33:04.361Z,956.59
2023-02-24T03:34:04.432Z,956.59
2023-02-24T03:35:04.391Z,956.60
2023-02-24T03:36:04.350Z,956.61
2023-02-24T03:37:04.348Z,956.62
2023-02-24T03:38:04.325Z,956.62
2023-02-24T03:39:04.309Z,956.60
2023-02-24T03:40:04.286Z,956.59
2023-02-24T03:41:04.288Z,956.57
2023-02-24T03:42:04.287Z,956.56
2023-02-24T03:43:04.278Z,956.55
2023-02-24T03:44:04.239Z,956.55
2023-02-24T03:45:04.237Z,956.55
2023-02-24T03:46:04.274Z,956.57
2023-02-24T03:47:04.230Z,956.57
2023-02-24T03:48:04.233Z,956.57
2023-02-24T03:49:04.189Z,956.57
2023-02-24T03:50:04.186Z,956.57
2023-02-24T03:51:04.197Z,956.56
2023-02-24T03:52:04.214Z,956.56
2023-02-24T03:53:04.181Z,956.55
2023-02-24T03:54:04.131Z,956.55
2023-02-24T03:55:04.135Z,956.54
2023-02-24T03:56:04.108Z,956.54
2023-02-24T03:57:04.118Z,956.53
2023-02-24T03:58:04.098Z,956.51
2023-02-24T03:59:04.100Z,956.51
2023-02-24T04:00:04.082Z,956.49
2023-02-24T04:01:04.073Z,956.48
2023-02-24T04:02:04.143Z,956.46
2023-02-24T04:03:04.073Z,956.45
2023-02-24T04:04:04.085Z,956.43
2023-02-24T04:05:04.137Z,956.42
2023-02-24T04:06:03.999Z,956.42
2023-02-24T04:07:04.058Z,956.42
2023-02-24T04:08:04.036Z,956.43
2023-02-24T04:09:04.027Z,956.43
2023-02-24T04:10:04.028Z,956.44
2023-02-24T04:11:03.958Z,956.44
2023-02-24T04:12:03.996Z,956.45
2023-02-24T04:13:03.964Z,956.45
2023-02-24T04:14:03.972Z,956.44
2023-02-24T04:15:03.920Z,956.44
2023-02-24T04:16:03.975Z,956.43
2023-02-24T04:17:03.912Z,956.43
2023-02-24T04:18:03.911Z,956.42
2023-02-24T04:19:03.896Z,956.41
2023-02-24T04:20:03.865Z,956.41
2023-02-24T04:21:03.861Z,956.41
2023-02-24T04:22:03.867Z,956.42
2023-02-24T04:23:03.863Z,956.42
2023-02-24T04:24:03.812Z,956.41
2023-02-24T04:25:03.806Z,956.39
2023-02-24T04:26:03.809Z,956.38
2023-02-24T04:27:03.806Z,956.36
2023-02-24T04:28:03.808Z,956.35
2023-02-24T04:29:03.795Z,956.34
2023-02-24T04:30:03.775Z,956.34
2023-02-24T04:31:03.883Z,956.34
2023-02-24T04:32:03.969Z,956.34
2023-02-24T04:33:03.762Z,956.33
2023-02-24T04:34:03.721Z,956.32
2023-02-24T04:35:03.703Z,956.31
2023-02-24T04:36:03.705Z,956.31
2023-02-24T04:37:03.738Z,956.30
2023-02-24T04:38:03.679Z,956.29
2023-02-24T04:39:03.676Z,956.28
2023-02-24T04:40:03.652Z,956.28
2023-02-24T04:41:03.647Z,956.28
2023-02-24T04:42:03.643Z,956.28
2023-02-24T04:43:03.635Z,956.28
2023-02-24T04:44:03.611Z,956.27
2023-02-24T04:45:03.595Z,956.26
2023-02-24T04:46:03.638Z,956.24
2023-02-24T04:47:03.579Z,956.22
2023-02-24T04:48:03.585Z,956.21
2023-02-24T04:49:03.552Z,956.19
2023-02-24T04:50:03.536Z,956.17
2023-02-24T04:51:03.546Z,956.15
2023-02-24T04:52:03.522Z,956.15
2023-02-24T04:53:03.533Z,956.15
2023-02-24T04:54:03.482Z,956.15
2023-02-24T04:55:03.488Z,956.16
2023-02-24T04:56:03.492Z,956.15
2023-02-24T04:57:03.489Z,956.15
2023-02-24T04:58:03.481Z,956.15
2023-02-24T04:59:03.462Z,956.15
2023-02-24T05:00:03.447Z,956.15
2023-02-24T05:01:03.424Z,956.16
2023-02-24T05:02:03.411Z,956.15
2023-02-24T05:03:03.438Z,956.14
2023-02-24T05:04:03.509Z,956.13
2023-02-24T05:05:03.380Z,956.11
2023-02-24T05:06:03.375Z,956.09
2023-02-24T05:07:03.378Z,956.07
2023-02-24T05:08:03.380Z,956.06
2023-02-24T05:09:03.342Z,956.06
2023-02-24T05:10:03.338Z,956.05
2023-02-24T05:11:03.342Z,956.04
2023-02-24T05:12:03.311Z,956.04
2023-02-24T05:13:03.332Z,956.04
2023-02-24T05:14:03.315Z,956.03
2023-02-24T05:15:03.315Z,956.03
2023-02-24T05:16:03.353Z,956.01
2023-02-24T05:17:03.271Z,956.00
2023-02-24T05:18:03.283Z,955.97
2023-02-24T05:19:03.298Z,955.95
2023-02-24T05:20:03.253Z,955.93
2023-02-24T05:21:03.285Z,955.91
2023-02-24T05:22:03.265Z,955.90
2023-02-24T05:23:03.274Z,955.90
2023-02-24T05:24:03.230Z,955.90
2023-02-24T05:25:03.262Z,955.89
2023-02-24T05:26:03.179Z,955.88
2023-02-24T05:27:03.152Z,955.87
2023-02-24T05:28:03.178Z,955.85
2023-02-24T05:29:03.151Z,955.83
2023-02-24T05:30:03.125Z,955.82
2023-02-24T05:31:03.178Z,955.81
2023-02-24T05:32:03.269Z,955.80
2023-02-24T05:33:03.111Z,955.79
2023-02-24T05:34:03.104Z,955.78
2023-02-24T05:35:03.092Z,955.75
2023-02-24T05:36:03.084Z,955.74
2023-02-24T05:37:03.047Z,955.72
2023-02-24T05:38:03.069Z,955.71
2023-02-24T05:39:03.033Z,955.68
2023-02-24T05:40:03.010Z,955.66
2023-02-24T05:41:03.028Z,955.64
2023-02-24T05:42:02.990Z,955.62
2023-02-24T05:43:03.000Z,955.61
2023-02-24T05:44:02.966Z,955.60
2023-02-24T05:45:02.958Z,955.59
2023-02-24T05:46:02.962Z,955.58
2023-02-24T05:47:02.996Z,955.57
2023-02-24T05:48:02.935Z,955.56
2023-02-24T05:49:02.924Z,955.54
2023-02-24T05:50:02.921Z,955.51
2023-02-24T05:51:05.055Z,955.49
2023-02-24T05:52:02.906Z,955.46
2023-02-24T05:53:02.847Z,955.44
2023-02-24T05:54:02.822Z,955.43
2023-02-24T05:55:02.826Z,955.43
2023-02-24T05:56:02.793Z,955.43
2023-02-24T05:57:02.802Z,955.43
2023-02-24T05:58:02.801Z,955.42
2023-02-24T05:59:02.772Z,955.41
2023-02-24T06:00:02.768Z,955.39
2023-02-24T06:01:02.735Z,955.38
2023-02-24T06:02:02.780Z,955.36
2023-02-24T06:03:02.811Z,955.35
2023-02-24T06:04:02.728Z,955.34
2023-02-24T06:05:02.687Z,955.36
2023-02-24T06:06:02.683Z,955.37
2023-02-24T06:07:02.695Z,955.36
2023-02-24T06:08:02.678Z,955.36
2023-02-24T06:09:02.655Z,955.36
2023-02-24T06:10:02.632Z,955.36
2023-02-24T06:11:02.651Z,955.36
2023-02-24T06:12:02.735Z,955.36
2023-02-24T06:13:02.676Z,955.34
2023-02-24T06:14:02.594Z,955.33
2023-02-24T06:15:02.594Z,955.34
2023-02-24T06:16:02.615Z,955.34
2023-02-24T06:17:02.597Z,955.31
2023-02-24T06:18:02.590Z,955.30
2023-02-24T06:19:02.554Z,955.29
2023-02-24T06:20:02.551Z,955.29
2023-02-24T06:21:02.540Z,955.29
2023-02-24T06:22:02.519Z,955.29
2023-02-24T06:23:02.528Z,955.30
2023-02-24T06:24:02.488Z,955.30
2023-02-24T06:25:02.478Z,955.30
2023-02-24T06:26:02.484Z,955.30
2023-02-24T06:27:02.513Z,955.30
2023-02-24T06:28:02.456Z,955.29
2023-02-24T06:29:02.436Z,955.29
2023-02-24T06:30:02.436Z,955.30
2023-02-24T06:31:02.471Z,955.31
2023-02-24T06:32:02.509Z,955.31
2023-02-24T06:33:02.418Z,955.31
2023-02-24T06:34:02.413Z,955.30
2023-02-24T06:35:02.410Z,955.29
2023-02-24T06:36:02.385Z,955.28
2023-02-24T06:37:02.374Z,955.27
2023-02-24T06:38:02.361Z,955.26
2023-02-24T06:39:02.343Z,955.26
2023-02-24T06:40:02.341Z,955.27
2023-02-24T06:41:02.367Z,955.28
2023-02-24T06:42:02.310Z,955.29
2023-02-24T06:43:02.312Z,955.28
2023-02-24T06:44:02.295Z,955.26
2023-02-24T06:45:02.294Z,955.25
2023-02-24T06:46:02.330Z,955.24
2023-02-24T06:47:02.250Z,955.23
2023-02-24T06:48:02.278Z,955.23
2023-02-24T06:49:02.247Z,955.23
2023-02-24T06:50:02.244Z,955.22
2023-02-24T06:51:02.216Z,955.22
2023-02-24T06:52:02.212Z,955.23
2023-02-24T06:53:02.240Z,955.24
2023-02-24T06:54:02.189Z,955.24
2023-02-24T06:55:02.192Z,955.25
2023-02-24T06:56:02.170Z,955.25
2023-02-24T06:57:02.153Z,955.26
2023-02-24T06:58:02.161Z,955.26
2023-02-24T06:59:02.184Z,955.26
2023-02-24T07:00:02.149Z,955.25
2023-02-24T07:01:02.153Z,955.24
2023-02-24T07:02:02.327Z,955.24
2023-02-24T07:03:02.113Z,955.25
2023-02-24T07:04:02.170Z,955.26
2023-02-24T07:05:02.128Z,955.26
2023-02-24T07:06:02.131Z,955.26
2023-02-24T07:07:02.071Z,955.26
2023-02-24T07:08:02.072Z,955.26
2023-02-24T07:09:02.025Z,955.25
2023-02-24T07:10:02.034Z,955.24
2023-02-24T07:11:02.134Z,955.22
2023-02-24T07:12:02.014Z,955.20
2023-02-24T07:13:02.016Z,955.19
2023-02-24T07:14:02.037Z,955.18
2023-02-24T07:15:01.970Z,955.18
2023-02-24T07:16:01.954Z,955.18
2023-02-24T07:17:02.076Z,955.18
2023-02-24T07:18:01.938Z,955.19
2023-02-24T07:19:01.929Z,955.18
2023-02-24T07:20:01.910Z,955.18
2023-02-24T07:21:01.901Z,955.18
2023-02-24T07:22:01.912Z,955.18
2023-02-24T07:23:01.900Z,955.17
2023-02-24T07:24:01.869Z,955.15
2023-02-24T07:25:01.869Z,955.14
2023-02-24T07:26:01.875Z,955.13
2023-02-24T07:27:01.942Z,955.11
2023-02-24T07:28:02.005Z,955.08
2023-02-24T07:29:01.834Z,955.07
2023-02-24T07:30:01.824Z,955.06
2023-02-24T07:31:01.978Z,955.06
2023-02-24T07:32:02.041Z,955.06
2023-02-24T07:33:01.788Z,955.06
2023-02-24T07:34:01.784Z,955.05
2023-02-24T07:35:01.743Z,955.04
2023-02-24T07:36:01.750Z,955.03
2023-02-24T07:37:01.757Z,955.03
2023-02-24T07:38:01.732Z,955.03
2023-02-24T07:39:01.756Z,955.02
2023-02-24T07:40:01.731Z,955.01
2023-02-24T07:41:01.683Z,954.99
2023-02-24T07:42:01.680Z,954.99
2023-02-24T07:43:01.685Z,954.98
2023-02-24T07:44:01.661Z,954.97
2023-02-24T07:45:01.715Z,954.96
2023-02-24T07:46:01.695Z,954.96
2023-02-24T07:47:01.627Z,954.96
2023-02-24T07:48:01.663Z,954.96
2023-02-24T07:49:01.642Z,954.97
2023-02-24T07:50:01.610Z,954.97
2023-02-24T07:51:01.597Z,954.97
2023-02-24T07:52:01.571Z,954.98
2023-02-24T07:53:01.575Z,954.99
2023-02-24T07:54:01.569Z,954.99
2023-02-24T07:55:01.559Z,954.99
2023-02-24T07:56:01.529Z,954.98
2023-02-24T07:57:01.538Z,954.98
2023-02-24T07:58:01.563Z,954.98
2023-02-24T07:59:01.521Z,954.99
2023-02-24T08:00:01.510Z,954.99
2023-02-24T08:01:01.498Z,954.99
2023-02-24T08:02:01.475Z,954.99
2023-02-24T08:03:01.465Z,955.00
2023-02-24T08:04:01.565Z,955.00
2023-02-24T08:05:01.443Z,955.00
2023-02-24T08:06:01.433Z,955.01
2023-02-24T08:07:01.427Z,955.00
2023-02-24T08:08:01.420Z,954.99
2023-02-24T08:09:01.414Z,954.99
2023-02-24T08:10:01.450Z,954.98
2023-02-24T08:11:01.398Z,954.97
2023-02-24T08:12:01.391Z,954.97
2023-02-24T08:13:01.415Z,954.95
2023-02-24T08:14:01.350Z,954.94
2023-02-24T08:15:01.361Z,954.92
2023-02-24T08:16:01.375Z,954.92
2023-02-24T08:17:01.337Z,954.91
2023-02-24T08:18:01.307Z,954.91
2023-02-24T08:19:01.282Z,954.91
2023-02-24T08:20:01.293Z,954.90
2023-02-24T08:21:01.263Z,954.90
2023-02-24T08:22:01.272Z,954.89
2023-02-24T08:23:01.260Z,954.88
2023-02-24T08:24:01.266Z,954.86
2023-02-24T08:25:01.231Z,954.86
2023-02-24T08:26:01.269Z,954.84
2023-02-24T08:27:01.199Z,954.81
2023-02-24T08:28:07.799Z,954.80
2023-02-24T08:29:01.207Z,954.78
2023-02-24T08:30:01.245Z,954.77
2023-02-24T08:31:01.265Z,954.77
2023-02-24T08:32:01.281Z,954.77
2023-02-24T08:33:01.162Z,954.76
2023-02-24T08:34:01.145Z,954.77
2023-02-24T08:35:01.155Z,954.77
2023-02-24T08:36:01.828Z,954.76
2023-02-24T08:37:01.113Z,954.75
2023-02-24T08:38:01.119Z,954.75
2023-02-24T08:39:01.085Z,954.74
2023-02-24T08:40:01.070Z,954.73
2023-02-24T08:41:01.053Z,954.73
2023-02-24T08:42:01.062Z,954.72
2023-02-24T08:43:01.062Z,954.72
2023-02-24T08:44:01.043Z,954.71
2023-02-24T08:45:01.024Z,954.70
2023-02-24T08:46:01.090Z,954.68
2023-02-24T08:47:01.092Z,954.66
2023-02-24T08:48:01.017Z,954.64
2023-02-24T08:49:01.184Z,954.63
2023-02-24T08:50:00.979Z,954.61
2023-02-24T08:51:00.968Z,954.61
2023-02-24T08:52:00.957Z,954.60
2023-02-24T08:53:00.970Z,954.59
2023-02-24T08:54:00.990Z,954.59
2023-02-24T08:55:00.912Z,954.59
2023-02-24T08:56:00.950Z,954.59
2023-02-24T08:57:00.911Z,954.57
2023-02-24T08:58:00.919Z,954.56
2023-02-24T08:59:00.880Z,954.55
2023-02-24T09:00:00.888Z,954.55
2023-02-24T09:01:01.053Z,954.54
2023-02-24T09:02:04.681Z,954.53
2023-02-24T09:03:00.863Z,954.51
2023-02-24T09:04:00.839Z,954.51
2023-02-24T09:05:00.879Z,954.50
2023-02-24T09:06:00.827Z,954.50
2023-02-24T09:07:11.257Z,954.51
2023-02-24T09:08:00.806Z,954.52
2023-02-24T09:09:00.801Z,954.52
2023-02-24T09:10:00.784Z,954.51
2023-02-24T09:11:00.757Z,954.51
2023-02-24T09:12:00.766Z,954.50
2023-02-24T09:13:00.774Z,954.50
2023-02-24T09:14:00.739Z,954.50
2023-02-24T09:15:00.713Z,954.49
2023-02-24T09:16:00.747Z,954.48
2023-02-24T09:17:00.695Z,954.48
2023-02-24T09:18:00.716Z,954.47
2023-02-24T09:19:00.728Z,954.45
2023-02-24T09:20:00.670Z,954.43
2023-02-24T09:21:00.768Z,954.42
2023-02-24T09:22:01.818Z,954.40
2023-02-24T09:23:00.789Z,954.39
2023-02-24T09:24:00.657Z,954.38
2023-02-24T09:25:00.613Z,954.37
2023-02-24T09:26:00.620Z,954.37
2023-02-24T09:27:00.601Z,954.37
2023-02-24T09:28:00.645Z,954.36
2023-02-24T09:29:06.641Z,954.34
2023-02-24T09:30:00.564Z,954.33
2023-02-24T09:31:00.643Z,954.33
2023-02-24T09:32:00.609Z,954.32
2023-02-24T09:33:00.717Z,954.32
2023-02-24T09:34:00.513Z,954.31
2023-02-24T09:35:00.509Z,954.31
2023-02-24T09:36:00.506Z,954.30
2023-02-24T09:37:00.489Z,954.30
2023-02-24T09:38:00.526Z,954.30
2023-02-24T09:39:00.702Z,954.28
2023-02-24T09:40:00.508Z,954.26
2023-02-24T09:41:07.484Z,954.25
2023-02-24T09:42:00.463Z,954.25
2023-02-24T09:43:00.438Z,954.24
2023-02-24T09:44:00.431Z,954.23
2023-02-24T09:45:00.413Z,954.22
2023-02-24T09:46:00.499Z,954.23
2023-02-24T09:47:00.452Z,954.22
2023-02-24T09:48:00.398Z,954.20
2023-02-24T09:49:00.371Z,954.20
2023-02-24T09:50:00.375Z,954.20
2023-02-24T09:51:03.873Z,954.20
2023-02-24T09:52:00.380Z,954.20
2023-02-24T09:53:10.718Z,954.21
2023-02-24T09:54:00.326Z,954.20
2023-02-24T09:55:00.301Z,954.19
2023-02-24T09:56:00.435Z,954.18
2023-02-24T09:57:00.301Z,954.18
2023-02-24T09:58:00.318Z,954.17
2023-02-24T09:59:00.267Z,954.15
2023-02-24T10:00:00.285Z,954.14
2023-02-24T10:01:00.315Z,954.12
2023-02-24T10:02:00.256Z,954.10
2023-02-24T10:03:00.497Z,954.08
2023-02-24T10:04:02.358Z,954.07
2023-02-24T10:05:00.206Z,954.06
2023-02-24T10:06:00.205Z,954.05
2023-02-24T10:07:00.211Z,954.04
2023-02-24T10:08:00.184Z,954.04
2023-02-24T10:09:00.177Z,954.03
2023-02-24T10:10:00.180Z,954.03
2023-02-24T10:11:00.177Z,954.02
2023-02-24T10:12:00.148Z,954.03
2023-02-24T10:13:00.170Z,954.02
2023-02-24T10:14:07.182Z,954.02
2023-02-24T10:15:01.084Z,954.02
2023-02-24T10:16:06.173Z,954.00
2023-02-24T10:17:00.270Z,953.98
2023-02-24T10:18:00.081Z,953.96
2023-02-24T10:19:00.093Z,953.95
2023-02-24T10:20:00.264Z,953.94
2023-02-24T10:21:00.059Z,953.92
2023-02-24T10:22:00.070Z,953.90
2023-02-24T10:23:00.049Z,953.89
2023-02-24T10:24:00.059Z,953.89
2023-02-24T10:25:00.031Z,953.88
2023-02-24T10:26:00.241Z,953.87
2023-02-24T10:27:07.528Z,953.86
2023-02-24T10:28:00.000Z,953.85
2023-02-24T10:28:59.973Z,953.83
2023-02-24T10:29:59.998Z,953.82
2023-02-24T10:31:00.043Z,953.80
2023-02-24T10:32:00.153Z,953.79
2023-02-24T10:33:00.072Z,953.78
2023-02-24T10:33:59.913Z,953.78
2023-02-24T10:34:59.895Z,953.77
2023-02-24T10:35:59.925Z,953.75
2023-02-24T10:36:59.874Z,953.77
2023-02-24T10:37:59.923Z,953.76
2023-02-24T10:38:59.852Z,953.76
2023-02-24T10:39:59.902Z,953.76
2023-02-24T10:40:59.923Z,953.75
2023-02-24T10:41:59.860Z,953.76
2023-02-24T10:42:59.825Z,953.76
2023-02-24T10:43:59.999Z,953.76
2023-02-24T10:45:02.572Z,953.74
2023-02-24T10:45:59.873Z,953.72
2023-02-24T10:47:00.112Z,953.70
2023-02-24T10:47:59.813Z,953.68
2023-02-24T10:48:59.748Z,953.67
2023-02-24T10:49:59.770Z,953.65
2023-02-24T10:50:59.744Z,953.63
2023-02-24T10:51:59.730Z,953.61
2023-02-24T10:52:59.750Z,953.58
2023-02-24T10:53:59.723Z,953.56
2023-02-24T10:54:59.707Z,953.56
2023-02-24T10:55:59.713Z,953.56
2023-02-24T10:56:59.665Z,953.53
2023-02-24T10:57:59.680Z,953.52
2023-02-24T10:59:01.691Z,953.51
2023-02-24T10:59:59.643Z,953.52
2023-02-24T11:00:59.677Z,953.52
2023-02-24T11:01:59.668Z,953.50
2023-02-24T11:02:59.631Z,953.47
2023-02-24T11:03:59.596Z,953.45
2023-02-24T11:05:00.143Z,953.46
2023-02-24T11:05:59.613Z,953.49
2023-02-24T11:06:59.569Z,953.49
2023-02-24T11:07:59.591Z,953.46
2023-02-24T11:08:59.556Z,953.45
2023-02-24T11:09:59.565Z,953.45
2023-02-24T11:10:59.557Z,953.48
2023-02-24T11:11:59.536Z,953.48
2023-02-24T11:13:09.005Z,953.48
2023-02-24T11:13:59.515Z,953.48
2023-02-24T11:14:59.492Z,953.44
2023-02-24T11:15:59.584Z,953.43
2023-02-24T11:16:59.492Z,953.41
2023-02-24T11:17:59.549Z,953.39
2023-02-24T11:18:59.457Z,953.39
2023-02-24T11:19:59.468Z,953.37
2023-02-24T11:20:59.429Z,953.36
2023-02-24T11:21:59.415Z,953.35
2023-02-24T11:22:59.419Z,953.33
2023-02-24T11:23:59.450Z,953.31
2023-02-24T11:25:01.542Z,953.29
2023-02-24T11:25:59.369Z,953.27
2023-02-24T11:26:59.388Z,953.26
2023-02-24T11:27:59.508Z,953.23
2023-02-24T11:28:59.340Z,953.20
2023-02-24T11:29:59.325Z,953.18
2023-02-24T11:30:59.487Z,953.17
2023-02-24T11:31:59.458Z,953.16
2023-02-24T11:32:59.477Z,953.14
2023-02-24T11:33:59.342Z,953.11
2023-02-24T11:34:59.288Z,953.09
2023-02-24T11:35:59.283Z,953.06
2023-02-24T11:36:59.284Z,953.05
2023-02-24T11:37:59.293Z,953.02
2023-02-24T11:39:11.866Z,952.98
2023-02-24T11:39:59.231Z,952.95
2023-02-24T11:40:59.231Z,952.93
2023-02-24T11:41:59.208Z,952.91
2023-02-24T11:42:59.230Z,952.91
2023-02-24T11:43:59.185Z,952.90
2023-02-24T11:44:59.279Z,952.88
2023-02-24T11:45:59.303Z,952.85
2023-02-24T11:46:59.190Z,952.81
2023-02-24T11:47:59.212Z,952.80
2023-02-24T11:48:59.180Z,952.76
2023-02-24T11:49:59.151Z,952.72
2023-02-24T11:50:59.182Z,952.65
2023-02-24T11:51:59.178Z,952.61
2023-02-24T11:52:59.267Z,952.54
2023-02-24T11:53:59.109Z,952.49
2023-02-24T11:54:59.091Z,952.46
2023-02-24T11:55:59.369Z,952.44
2023-02-24T11:56:59.084Z,952.46
2023-02-24T11:57:59.062Z,952.46
2023-02-24T11:58:59.030Z,952.45
2023-02-24T11:59:59.039Z,952.45
2023-02-24T12:00:59.045Z,952.42
2023-02-24T12:01:59.019Z,952.40
2023-02-24T12:02:59.155Z,952.39
2023-02-24T12:03:59.028Z,952.33
2023-02-24T12:04:58.976Z,952.30
2023-02-24T12:05:59.011Z,952.30
2023-02-24T12:06:58.973Z,952.29
2023-02-24T12:07:58.945Z,952.27
2023-02-24T12:08:58.946Z,952.27
2023-02-24T12:10:14.141Z,952.26
2023-02-24T12:10:58.935Z,952.25
2023-02-24T12:11:58.981Z,952.23
2023-02-24T12:12:58.930Z,952.20
2023-02-24T12:13:58.886Z,952.19
2023-02-24T12:14:58.934Z,952.17
2023-02-24T12:15:58.936Z,952.17
2023-02-24T12:16:58.853Z,952.17
2023-02-24T12:17:58.935Z,952.15
2023-02-24T12:18:58.838Z,952.15
2023-02-24T12:19:58.832Z,952.13
2023-02-24T12:20:58.882Z,952.11
2023-02-24T12:21:58.816Z,952.10
2023-02-24T12:22:58.818Z,952.08
2023-02-24T12:23:58.816Z,952.04
2023-02-24T12:24:58.780Z,952.02
2023-02-24T12:25:58.761Z,952.00
2023-02-24T12:26:58.802Z,951.95
2023-02-24T12:27:58.760Z,951.92